Aviation Digital Data Service (ADDS)

Output produced by METARs form (0809 UTC 24 May 2018)
found at http://www.aviationweather.gov/adds/metars/
 
VQPR 240600Z 00000KT 5000 BR FEW005 SCT015 OVC070 16/13 Q1020